Latest Weather Observations for Central Arnhem Plateau

IDD60801

Issued at 6:05 pm CST Wednesday 27 August 2014 (issued every 30 minutes, with the page automatically refreshed every 10 minutes)

About weather observations | Map of weather stations | Latest weather observations for NT | Other Formats
Station Details ID: 014909 Name: CENTRAL ARNHEM PLATEAU Lat: -13.33 Lon: 133.09 Height: 416.0 m
Data from the previous 72 hours. | See also: Recent months for locations in Northern Territory
Date/Time
CST
Temp
°C
App
Temp
°C
Dew
Point
Rel
Hum
%
Delta-T
°C
Wind Press
QNH
hPa
Press
MSL
hPa
Rain
since 9 am
mm
Dir
 
Spd
km/h
Gust
km/h
Spd
kts
Gust
kts
27/06:00pm 28.0 22.3 -1.0 15 13.7 ESE 19 28 10 15 1014.0 1011.9 0.0
27/05:30pm 28.7 22.3 -1.4 14 14.2 ESE 22 33 12 18 1013.7 1011.6 0.0
27/05:00pm 29.3 23.0 -0.9 14 14.4 E 22 28 12 15 1013.5 1011.4 0.0
27/04:30pm 29.4 23.0 -1.9 13 14.7 ESE 22 32 12 17 1013.4 1011.3 0.0
27/04:00pm 29.3 22.6 -0.9 14 14.4 ESE 24 32 13 17 1013.4 1011.3 0.0
27/03:30pm 29.4 23.3 0.1 15 14.2 SE 22 32 12 17 1013.3 1011.2 0.0
27/03:00pm 29.4 23.8 1.0 16 14.0 SE 20 28 11 15 1013.6 1011.5 0.0
27/02:30pm 28.8 23.0 -0.4 15 14.0 ESE 20 33 11 18 1014.1 1012.0 0.0
27/02:00pm 28.5 21.5 -0.6 15 13.9 E 26 41 14 22 1014.6 1012.5 0.0
27/01:30pm 28.3 21.4 0.1 16 13.6 ESE 26 39 14 21 1014.9 1012.8 0.0
27/01:00pm 28.2 21.5 1.7 18 13.1 ESE 26 41 14 22 1015.6 1013.5 0.0
27/12:30pm 27.2 18.8 -0.8 16 13.2 ESE 33 44 18 24 1015.8 1013.7 0.0
27/12:00pm 26.7 18.4 -0.3 17 12.8 ESE 33 52 18 28 1016.1 1014.1 0.0
27/11:54am 27.0 19.0 0.7 18 12.7 ESE 32 50 17 27 1016.2 1014.2 0.0
27/11:30am 25.9 17.1 1.2 20 11.9 ESE 37 52 20 28 1016.6 1014.5 0.0
27/11:00am 26.3 15.9 -1.5 16 12.8 E 43 59 23 32 1016.7 1014.6 0.0
27/10:30am 25.6 16.3 0.3 19 12.0 E 39 57 21 31 1016.9 1014.8 0.0
27/10:11am 25.4 16.6 1.5 21 11.6 E 37 56 20 30 1017.1 1015.0 0.0
27/10:00am 25.2 15.2 0.7 20 11.7 E 43 56 23 30 1017.0 1014.9 0.0
27/09:49am 24.8 16.2 0.3 20 11.5 ESE 35 57 19 31 1016.9 1014.8 0.0
27/09:30am 24.2 16.4 2.9 25 10.5 E 33 50 18 27 1016.8 1014.7 0.0
27/09:18am 23.7 17.1 4.1 28 9.8 ESE 28 46 15 25 1016.9 1014.8 0.0
27/09:00am 22.0 17.2 8.9 43 7.1 ESE 24 30 13 16 1016.9 1014.8 0.0
27/08:30am 19.6 16.4 11.1 58 4.7 ESE 19 26 10 14 1016.6 1014.5 0.0
27/08:00am 17.8 15.0 12.5 71 3.0 ESE 19 26 10 14 1016.3 1014.3 0.0
27/07:30am 16.7 14.4 13.0 79 2.1 ESE 17 22 9 12 1016.1 1014.1 0.0
27/07:00am 16.2 13.9 12.9 81 1.9 ESE 17 20 9 11 1015.9 1013.8 0.0
27/06:30am 15.8 14.2 12.7 82 1.7 ESE 13 17 7 9 1015.8 1013.7 0.0
27/06:00am 16.1 14.6 13.2 83 1.6 ESE 13 17 7 9 1015.6 1013.5 0.0
27/05:30am 16.2 14.6 12.7 80 2.0 ESE 13 15 7 8 1015.3 1013.2 0.0
27/05:00am 16.6 14.9 12.6 77 2.3 ESE 13 15 7 8 1015.2 1013.1 0.0
27/04:30am 17.1 15.4 12.6 75 2.5 E 13 17 7 9 1015.2 1013.1 0.0
27/04:00am 17.3 15.6 12.4 73 2.8 E 13 17 7 9 1015.1 1013.0 0.0
27/03:30am 17.7 15.9 12.2 70 3.1 ESE 13 19 7 10 1015.4 1013.3 0.0
27/03:00am 18.1 16.1 11.4 65 3.7 E 13 15 7 8 1015.6 1013.5 0.0
27/02:30am 18.6 16.3 10.4 59 4.5 E 13 19 7 10 1015.9 1013.8 0.0
27/02:00am 19.0 16.5 8.1 49 5.7 E 11 15 6 8 1016.0 1014.0 0.0
27/01:30am 19.7 16.9 6.8 43 6.6 ESE 11 15 6 8 1016.1 1014.1 0.0
27/01:00am 20.2 17.1 5.4 38 7.4 E 11 17 6 9 1016.5 1014.4 0.0
27/12:30am 20.8 17.2 5.2 36 7.8 E 13 17 7 9 1016.5 1014.4 0.0
27/12:00am 21.2 18.3 4.7 34 8.2 E 9 11 5 6 1016.6 1014.5 0.0
 
Date/Time
CST
Temp
°C
App
Temp
°C
Dew
Point
Rel
Hum
%
Delta-T
°C
Wind Press
QNH
hPa
Press
MSL
hPa
Rain
since 9 am
mm
Dir
 
Spd
km/h
Gust
km/h
Spd
kts
Gust
kts
26/11:30pm 21.7 18.8 4.7 33 8.5 E 9 15 5 8 1016.6 1014.5 0.0
26/11:00pm 22.0 18.4 5.0 33 8.6 E 13 17 7 9 1016.6 1014.5 0.0
26/10:30pm 22.4 19.2 4.9 32 8.8 ESE 11 15 6 8 1016.5 1014.4 0.0
26/10:00pm 22.9 18.9 4.9 31 9.1 ESE 15 20 8 11 1016.3 1014.3 0.0
26/09:30pm 23.1 19.3 4.1 29 9.5 E 13 17 7 9 1016.1 1014.1 0.0
26/09:00pm 23.8 19.5 3.2 26 10.2 ESE 15 20 8 11 1015.8 1013.7 0.0
26/08:30pm 24.3 20.3 3.0 25 10.5 ESE 13 17 7 9 1015.3 1013.2 0.0
26/08:00pm 24.9 21.6 2.4 23 11.0 ESE 9 13 5 7 1015.0 1012.9 0.0
26/07:30pm 25.6 22.2 1.7 21 11.6 ESE 9 13 5 7 1014.7 1012.6 0.0
26/07:00pm 26.5 22.7 1.7 20 12.1 ESE 11 19 6 10 1014.3 1012.2 0.0
26/06:30pm 27.6 23.3 1.2 18 12.9 ESE 13 17 7 9 1013.9 1011.7 0.0
26/06:00pm 28.6 23.3 -0.5 15 13.9 ESE 17 26 9 14 1013.5 1011.4 0.0
26/05:30pm 28.6 23.4 0.3 16 13.7 ESE 17 30 9 16 1013.4 1011.3 0.0
26/05:00pm 29.5 24.3 0.2 15 14.3 SE 17 22 9 12 1013.3 1011.2 0.0
26/04:30pm 29.3 23.5 0.0 15 14.2 E 20 32 11 17 1013.4 1011.3 0.0
26/04:00pm 28.8 23.7 0.5 16 13.8 E 17 24 9 13 1013.4 1011.3 0.0
26/03:30pm 28.8 24.4 0.5 16 13.8 SE 13 24 7 13 1013.7 1011.6 0.0
26/03:00pm 29.5 24.1 1.1 16 14.0 E 19 32 10 17 1014.0 1011.9 0.0
26/02:30pm 28.7 23.2 0.4 16 13.8 ESE 19 30 10 16 1014.4 1012.3 0.0
26/02:00pm 28.8 23.3 2.1 18 13.4 E 20 28 11 15 1014.7 1012.6 0.0
26/01:30pm 27.9 21.8 2.9 20 12.6 ESE 24 32 13 17 1015.1 1013.0 0.0
26/01:00pm 27.9 21.8 2.9 20 12.6 ESE 24 35 13 19 1015.5 1013.4 0.0
26/12:30pm 27.2 21.3 3.7 22 12.0 E 24 35 13 19 1016.0 1014.0 0.0
26/12:00pm 27.0 19.4 2.8 21 12.1 E 32 43 17 23 1016.5 1014.4 0.0
26/11:30am 26.2 18.5 2.2 21 11.8 ESE 32 46 17 25 1016.9 1014.8 0.0
26/11:00am 26.4 18.6 1.7 20 12.1 E 32 44 17 24 1017.2 1015.1 0.0
26/10:43am 25.4 17.8 2.8 23 11.2 ESE 32 52 17 28 1017.3 1015.2 0.0
26/10:30am 25.5 17.7 2.9 23 11.2 ESE 33 48 18 26 1017.4 1015.3 0.0
26/10:00am 24.1 16.3 2.9 25 10.4 ESE 33 54 18 29 1017.5 1015.4 0.0
26/09:54am 23.9 16.4 3.2 26 10.2 ESE 32 54 17 29 1017.5 1015.4 0.0
26/09:30am 23.2 16.9 5.6 32 9.0 ESE 28 37 15 20 1017.6 1015.5 0.0
26/09:00am 21.0 16.2 7.3 41 7.2 ESE 22 37 12 20 1017.5 1015.4 0.0
26/08:30am 18.6 14.6 8.3 51 5.4 ESE 19 28 10 15 1017.4 1015.3 0.0
26/08:00am 17.1 12.8 6.9 51 5.2 ESE 19 24 10 13 1017.1 1015.0 0.0
26/07:30am 15.8 11.7 6.3 53 4.7 SE 17 20 9 11 1016.8 1014.7 0.0
26/07:00am 14.8 11.3 5.6 54 4.5 ESE 13 17 7 9 1016.5 - 0.0
26/06:30am 15.3 11.4 5.5 52 4.8 ESE 15 20 8 11 1016.1 1014.1 0.0
26/06:00am 15.9 12.4 5.5 50 5.1 SE 13 19 7 10 1015.9 1013.8 0.0
26/05:30am 16.0 12.5 5.3 49 5.2 SE 13 15 7 8 1015.8 1013.7 0.0
26/05:00am 16.4 13.3 5.4 48 5.4 SE 11 15 6 8 1015.7 - 0.0
26/04:30am 16.4 13.5 4.8 46 5.6 SE 9 11 5 6 1015.7 1013.6 0.0
26/04:00am 16.8 13.9 4.8 45 5.8 SE 9 13 5 7 1015.8 - 0.0
26/03:30am 17.2 13.9 4.5 43 6.1 SE 11 13 6 7 1015.9 1013.8 0.0
26/03:00am 17.7 14.4 4.3 41 6.5 ESE 11 13 6 7 1016.0 1014.0 0.0
26/02:30am 18.2 14.8 4.0 39 6.8 SE 11 13 6 7 1016.2 1014.2 0.0
26/02:00am 18.5 15.2 4.3 39 6.9 SE 11 13 6 7 1016.5 - 0.0
26/01:30am 18.7 15.6 3.7 37 7.2 ESE 9 11 5 6 1016.7 1014.6 0.0
26/01:00am 19.5 16.4 3.6 35 7.7 ESE 9 11 5 6 1016.9 - 0.0
26/12:30am 20.2 16.0 3.9 34 8.0 E 15 19 8 10 1017.0 1014.9 0.0
26/12:00am 20.8 16.5 3.5 32 8.4 E 15 22 8 12 1017.1 1015.0 0.0
 
Date/Time
CST
Temp
°C
App
Temp
°C
Dew
Point
Rel
Hum
%
Delta-T
°C
Wind Press
QNH
hPa
Press
MSL
hPa
Rain
since 9 am
mm
Dir
 
Spd
km/h
Gust
km/h
Spd
kts
Gust
kts
25/11:30pm 21.4 16.7 3.1 30 8.9 E 17 20 9 11 1017.1 1015.0 0.0
25/11:00pm 22.0 18.1 3.2 29 9.2 E 13 19 7 10 1017.0 - 0.0
25/10:30pm 22.3 18.3 2.9 28 9.4 E 13 19 7 10 1016.9 1014.8 0.0
25/10:00pm 22.5 18.5 2.6 27 9.6 E 13 17 7 9 1016.8 - 0.0
25/09:30pm 22.8 19.5 2.3 26 9.9 E 9 13 5 7 1016.6 1014.5 0.0
25/09:00pm 22.9 19.9 1.8 25 10.1 E 7 9 4 5 1016.3 1014.3 0.0
25/08:30pm 24.0 20.7 2.2 24 10.6 E 9 11 5 6 1016.2 1014.2 0.0
25/08:00pm 24.4 21.0 1.9 23 10.9 E 9 11 5 6 1016.0 - 0.0
25/07:30pm 25.2 21.4 2.0 22 11.3 ESE 11 15 6 8 1015.7 1013.6 0.0
25/07:00pm 26.0 21.5 2.0 21 11.8 ESE 15 22 8 12 1015.6 - 0.0
25/06:30pm 26.9 21.6 2.1 20 12.3 SE 19 26 10 14 1015.2 1013.1 0.0
25/06:00pm 27.9 22.1 2.2 19 12.8 SE 22 30 12 16 1014.9 1012.8 0.0
25/05:30pm 28.3 22.5 2.5 19 13.0 ESE 22 37 12 20 1014.7 1012.6 0.0
25/05:00pm 29.0 23.2 2.3 18 13.4 SE 22 32 12 17 1014.5 - 0.0
25/04:30pm 29.1 22.9 2.4 18 13.5 SE 24 35 13 19 1014.5 1012.4 0.0
25/04:00pm 29.4 23.3 2.6 18 13.6 SE 24 35 13 19 1014.6 - 0.0
25/03:30pm 29.0 23.7 5.1 22 12.6 SE 22 35 12 19 1014.7 1012.6 0.0
25/03:00pm 29.4 24.3 6.1 23 12.5 ESE 22 33 12 18 1014.7 1012.6 0.0
25/02:30pm 28.8 23.5 6.8 25 11.9 ESE 24 37 13 20 1015.1 1013.0 0.0
25/02:00pm 28.0 22.7 6.7 26 11.5 ESE 24 35 13 19 1015.4 - 0.0
25/01:36pm 28.7 22.9 7.9 27 11.5 SE 28 48 15 26 1015.8 - 0.0
25/01:30pm 28.5 23.4 7.7 27 11.4 SE 24 33 13 18 1016.0 1014.0 0.0
25/01:16pm 27.8 21.9 7.6 28 11.1 SE 28 48 15 26 1016.2 - 0.0
25/01:00pm 27.9 21.3 7.7 28 11.1 SE 32 44 17 24 1016.6 - 0.0
25/12:42pm 27.6 21.8 8.0 29 10.8 ESE 28 46 15 25 1017.0 - 0.0
25/12:30pm 27.1 20.7 7.0 28 10.8 E 30 39 16 21 1017.1 1015.0 0.0
25/12:15pm 27.2 20.7 8.1 30 10.5 ESE 32 50 17 27 1017.4 - 0.0
25/12:00pm 27.4 21.3 8.3 30 10.5 ESE 30 43 16 23 1017.6 1015.5 0.0
25/11:30am 26.7 20.1 7.7 30 10.3 E 32 46 17 25 1018.0 1015.9 0.0
25/11:24am 26.9 21.2 8.4 31 10.2 ESE 28 46 15 25 1017.9 - 0.0
25/11:00am 26.0 20.1 8.9 34 9.5 ESE 30 41 16 22 1018.1 - 0.0
25/10:30am 25.3 20.5 10.4 39 8.4 SE 26 33 14 18 1018.5 1016.5 0.0
25/10:00am 23.9 19.9 10.6 43 7.5 SE 22 30 12 16 1018.6 - 0.0
25/09:30am 22.4 18.4 10.5 47 6.6 SE 22 32 12 17 1018.6 1016.6 0.0
25/09:00am 21.2 17.2 10.4 50 6.0 SSE 22 32 12 17 1018.5 1016.5 0.0
25/08:30am 20.4 16.2 9.6 50 5.9 SE 22 32 12 17 1018.3 1016.3 0.0
25/08:00am 19.6 15.8 8.9 50 5.7 SE 19 32 10 17 1018.0 - 0.0
25/07:30am 19.0 16.1 9.5 54 5.1 SE 15 24 8 13 1017.8 1015.7 0.0
25/07:00am 18.4 15.8 9.5 56 4.8 SE 13 15 7 8 1017.4 - 0.0
25/06:30am 18.5 16.0 8.2 51 5.4 SSE 11 15 6 8 1017.0 1014.9 0.0
25/06:00am 19.2 17.0 7.9 48 5.9 SE 9 13 5 7 1016.7 1014.6 0.0
25/05:30am 19.5 16.9 7.9 47 6.1 SE 11 15 6 8 1016.2 1014.2 0.0
25/05:00am 19.9 17.3 7.9 46 6.3 SE 11 15 6 8 1016.1 - 0.0
25/04:30am 20.1 17.5 7.8 45 6.5 SE 11 15 6 8 1016.0 1014.0 0.0
25/04:00am 20.3 17.7 7.7 44 6.6 SE 11 13 6 7 1016.2 - 0.0
25/03:30am 20.5 17.8 7.2 42 6.9 ESE 11 13 6 7 1016.3 1014.3 0.0
25/03:00am 20.2 17.7 6.5 41 7.0 ESE 9 13 5 7 1016.3 1014.3 0.0
25/02:30am 20.3 17.4 6.3 40 7.2 SE 11 13 6 7 1016.6 1014.5 0.0
25/02:00am 20.7 17.8 6.6 40 7.3 SE 11 13 6 7 1016.8 - 0.0
25/01:30am 20.9 17.9 6.1 38 7.6 ESE 11 13 6 7 1016.8 1014.7 0.0
25/01:00am 21.4 18.4 6.1 37 7.9 ESE 11 13 6 7 1017.0 - 0.0
25/12:30am 21.9 18.9 5.8 35 8.2 E 11 15 6 8 1017.3 1015.2 0.0
25/12:00am 22.3 18.9 6.1 35 8.4 E 13 15 7 8 1017.5 1015.4 0.0
 
Date/Time
CST
Temp
°C
App
Temp
°C
Dew
Point
Rel
Hum
%
Delta-T
°C
Wind Press
QNH
hPa
Press
MSL
hPa
Rain
since 9 am
mm
Dir
 
Spd
km/h
Gust
km/h
Spd
kts
Gust
kts
24/11:30pm 22.9 19.6 6.2 34 8.7 ESE 13 19 7 10 1017.6 1015.5 0.0
24/11:00pm 23.3 19.6 6.1 33 8.9 ESE 15 19 8 10 1017.7 - 0.0
24/10:30pm 24.0 19.4 5.8 31 9.4 ESE 19 26 10 14 1017.7 1015.6 0.0
24/10:00pm 24.5 19.7 5.8 30 9.7 ESE 20 37 11 20 1017.6 - 0.0
24/09:30pm 24.9 20.1 4.6 27 10.4 ESE 19 28 10 15 1017.5 1015.4 0.0
24/09:00pm 25.1 20.9 3.7 25 10.8 ESE 15 20 8 11 1017.2 1015.1 0.0
24/08:30pm 25.6 22.5 3.5 24 11.1 ESE 9 13 5 7 1016.7 1014.6 0.0
24/08:00pm 26.4 22.4 3.0 22 11.7 SE 13 15 7 8 1016.2 - 0.0
24/07:30pm 27.1 23.5 2.9 21 12.2 ESE 11 13 6 7 1015.7 1013.6 0.0
24/07:00pm 28.0 24.4 3.0 20 12.7 E 11 15 6 8 1015.3 - 0.0
24/06:30pm 28.9 25.2 2.2 18 13.4 SE 11 15 6 8 1014.9 1012.8 0.0

Other Formats:

Comma delimited format used in spreadsheet applications
http://www.bom.gov.au/fwo/IDD60801/IDD60801.94141.axf

JavaScript Object Notation format (JSON) in row-major order
http://www.bom.gov.au/fwo/IDD60801/IDD60801.94141.json